Time;durP1;ratioP1;P1;durP2;ratioP2;P2;SDS_P1;SDS_P2;PMS_P1;PMS_P2;Temp;Humidity;BMP_temperature;BMP_pressure;BME280_temperature;BME280_humidity;BME280_pressure;Samples;Min_cycle;Max_cycle;Signal;HPM_P1;HPM_P2
2022/06/03 06:33:00;;;;;;;;;8.00;8.00;;;;;20.68;48.07;101081.63;5050232;27;45786;-81
2022/06/03 06:35:49;;;;;;;;;8.00;6.00;;;;;20.86;47.45;101083.63;5031958;27;45750;-80
2022/06/03 06:38:50;;;;;;;;;6.00;6.00;;;;;21.11;46.79;101079.53;5037335;28;46938;-79
2022/06/03 06:41:35;;;;;;;;;6.25;6.25;;;;;21.44;46.72;101068.38;5039583;28;47146;-82
2022/06/03 06:44:36;;;;;;;;;8.25;7.00;;;;;21.82;46.17;101081.91;5033173;28;47092;-83
2022/06/03 06:47:28;;;;;;;;;9.25;6.75;;;;;22.12;45.76;101079.94;5023242;28;45760;-80
2022/06/03 06:50:14;;;;;;;;;7.00;7.00;;;;;22.44;44.55;101072.34;5026880;28;45507;-82
2022/06/03 06:52:48;;;;;;;;;8.00;6.00;;;;;22.74;44.07;101064.88;5023277;28;47412;-80
2022/06/03 06:55:22;;;;;;;;;5.67;4.67;;;;;23.01;44.02;101057.66;5024215;28;47050;-81
2022/06/03 06:57:54;;;;;;;;;6.00;6.00;;;;;23.25;43.23;101064.22;5025918;28;46237;-83
2022/06/03 07:00:27;;;;;;;;;6.00;6.00;;;;;23.48;42.66;101066.44;5023998;28;47165;-80
2022/06/03 07:03:10;;;;;;;;;8.00;6.00;;;;;23.68;42.52;101061.66;5025209;28;45686;-81
2022/06/03 07:05:44;;;;;;;;;10.00;8.33;;;;;23.89;42.10;101063.94;5010107;28;47302;-80
2022/06/03 07:08:22;;;;;;;;;7.67;6.67;;;;;24.06;41.73;101059.44;5023700;28;46764;-81
2022/06/03 07:11:07;;;;;;;;;8.00;5.00;;;;;24.26;41.03;101059.16;5024402;28;45882;-84
2022/06/03 07:13:42;;;;;;;;;6.00;6.00;;;;;24.42;41.07;101065.63;5025857;28;46976;-85
2022/06/03 07:16:10;;;;;;;;;7.33;7.00;;;;;24.51;40.98;101066.50;5024380;28;45930;-81
2022/06/03 07:22:14;;;;;;;;;6.67;6.67;;;;;24.46;40.55;101073.28;5024987;28;45961;-79
2022/06/03 07:24:53;;;;;;;;;7.67;7.00;;;;;24.44;40.64;101071.75;5041506;28;51908;-81
2022/06/03 07:27:43;;;;;;;;;11.00;8.00;;;;;24.48;40.28;101073.09;5038416;28;46501;-82
2022/06/03 07:30:18;;;;;;;;;9.33;7.33;;;;;24.52;40.44;101071.75;5042214;27;47140;-81
2022/06/03 07:32:57;;;;;;;;;6.67;6.67;;;;;24.54;40.26;101068.88;5062232;27;45582;-79
2022/06/03 07:35:26;;;;;;;;;6.33;5.67;;;;;24.52;40.48;101062.78;5058902;27;45503;-78
2022/06/03 07:38:02;;;;;;;;;7.67;5.33;;;;;24.56;40.48;101064.16;5061348;27;46465;-79
2022/06/03 07:40:37;;;;;;;;;5.00;5.00;;;;;24.60;40.14;101071.78;5057011;27;45530;-80
2022/06/03 07:43:12;;;;;;;;;11.00;8.00;;;;;24.63;40.20;101075.16;5049041;27;47034;-80
2022/06/03 07:45:52;;;;;;;;;9.00;7.00;;;;;24.66;40.24;101064.84;5048196;28;46391;-80
2022/06/03 07:48:24;;;;;;;;;7.00;7.00;;;;;24.70;40.17;101060.78;5044307;28;46994;-81
2022/06/03 07:51:00;;;;;;;;;6.00;6.00;;;;;24.76;39.99;101071.97;5049773;28;47092;-80
2022/06/03 07:53:42;;;;;;;;;7.33;6.00;;;;;24.77;40.24;101079.09;5044578;28;45708;-79
2022/06/03 07:56:08;;;;;;;;;6.67;6.67;;;;;24.79;40.12;101074.31;5055944;27;47174;-83
2022/06/03 07:58:38;;;;;;;;;6.33;6.33;;;;;24.83;40.08;101070.28;5069872;27;45490;-82
2022/06/03 08:01:05;;;;;;;;;5.67;5.67;;;;;24.94;39.92;101075.41;5071344;28;45483;-86
2022/06/03 08:03:37;;;;;;;;;10.33;8.00;;;;;25.04;39.47;101072.50;5055241;28;45553;-89
2022/06/03 08:06:05;;;;;;;;;8.33;8.00;;;;;25.13;39.65;101076.03;5065556;28;45472;-94
2022/06/03 08:11:24;;;;;;;;;8.00;7.67;;;;;25.32;39.71;101071.25;5068838;28;45518;-91
2022/06/03 08:13:53;;;;;;;;;8.00;8.00;;;;;25.40;39.13;101073.97;5068618;28;45801;-95
2022/06/03 08:16:37;;;;;;;;;7.00;7.00;;;;;25.44;39.10;101067.16;5056059;28;45331;-96
2022/06/03 08:19:10;;;;;;;;;7.00;7.00;;;;;25.48;39.13;101063.09;5077829;28;45702;-83
2022/06/03 08:21:43;;;;;;;;;8.33;7.33;;;;;25.53;38.94;101060.69;5049790;28;53915;-87
2022/06/03 08:24:14;;;;;;;;;10.33;10.33;;;;;25.56;39.13;101062.25;5047969;28;46706;-87
2022/06/03 08:26:42;;;;;;;;;8.33;7.67;;;;;25.61;39.02;101059.00;5046845;28;45819;-88
2022/06/03 08:29:20;;;;;;;;;8.33;8.00;;;;;25.62;38.67;101047.94;5050485;27;46615;-81
2022/06/03 08:31:47;;;;;;;;;4.67;4.67;;;;;25.65;38.77;101049.47;5042455;28;47008;-87
2022/06/03 08:34:25;;;;;;;;;6.33;6.33;;;;;25.68;38.53;101035.53;5045898;28;46720;-85
2022/06/03 08:36:53;;;;;;;;;7.67;7.67;;;;;25.71;38.87;101037.06;5047489;28;46997;-87
2022/06/03 08:39:23;;;;;;;;;6.00;5.00;;;;;25.70;38.43;101027.22;5026762;28;47002;-81
2022/06/03 08:42:22;;;;;;;;;7.00;7.00;;;;;25.73;38.73;101041.28;5045790;28;46218;-80
2022/06/03 08:45:10;;;;;;;;;7.00;7.00;;;;;25.78;38.69;101038.03;5045081;28;45648;-88
2022/06/03 08:47:48;;;;;;;;;7.33;7.33;;;;;25.82;38.69;101035.81;5043995;27;55027;-89
2022/06/03 08:50:25;;;;;;;;;7.00;7.00;;;;;25.83;38.62;101032.91;5048109;28;46195;-93
2022/06/03 08:53:05;;;;;;;;;7.67;7.67;;;;;25.84;38.50;101042.78;5048136;28;46147;-96
2022/06/03 08:55:55;;;;;;;;;7.00;7.00;;;;;25.84;38.98;101034.63;5045231;28;45679;-92
2022/06/03 08:58:31;;;;;;;;;9.00;8.00;;;;;25.86;39.21;101043.44;5037507;28;45604;-94
2022/06/03 09:01:19;;;;;;;;;8.00;8.00;;;;;25.89;39.34;101053.09;5045474;27;48231;-89
2022/06/03 09:04:22;;;;;;;;;6.67;6.67;;;;;25.91;39.30;101057.34;5045304;28;46064;-85
2022/06/03 09:07:04;;;;;;;;;9.67;8.00;;;;;25.92;39.62;101061.75;5046080;28;47000;-85
2022/06/03 09:09:43;;;;;;;;;7.00;7.00;;;;;25.95;39.63;101070.59;5047886;27;45618;-95
2022/06/03 09:12:08;;;;;;;;;9.00;8.67;;;;;25.96;39.50;101085.88;5044908;28;47468;-86
2022/06/03 09:14:34;;;;;;;;;7.33;7.00;;;;;25.98;39.61;101117.31;5032227;28;45661;-88
2022/06/03 09:17:24;;;;;;;;;7.00;7.00;;;;;26.00;39.92;101119.88;5048344;28;45747;-90
2022/06/03 09:19:52;;;;;;;;;7.67;7.67;;;;;26.06;39.48;101105.53;5044749;28;47195;-95
2022/06/03 11:48:54;;;;;;;;;15.75;12.25;;;;;21.38;47.20;101152.66;5039295;27;46085;-84
2022/06/03 11:51:20;;;;;;;;;8.50;8.50;;;;;21.49;47.16;101144.41;5036598;27;45715;-80
2022/06/03 11:53:48;;;;;;;;;11.75;10.50;;;;;21.69;46.86;101152.44;5045459;27;46123;-81
2022/06/03 11:56:18;;;;;;;;;12.00;12.00;;;;;21.91;46.85;101148.56;5036951;28;45653;-84
2022/06/03 11:58:58;;;;;;;;;13.75;12.00;;;;;22.18;46.92;101151.44;5038230;27;47102;-85
2022/06/03 12:01:29;;;;;;;;;10.67;10.67;;;;;22.46;46.43;101146.91;5042606;28;45652;-79
2022/06/03 12:04:36;;;;;;;;;12.33;11.00;;;;;22.79;45.59;101141.00;5039283;28;45756;-79
2022/06/03 12:07:23;;;;;;;;;9.33;9.33;;;;;23.06;45.57;101138.38;5020166;28;45725;-87
2022/06/03 12:10:11;;;;;;;;;10.00;10.00;;;;;23.35;44.93;101132.75;5017169;28;46496;-86
2022/06/03 12:15:58;;;;;;;;;11.00;11.00;;;;;23.85;44.49;101135.75;4966431;28;46197;-92
2022/06/03 12:18:57;;;;;;;;;10.67;10.67;;;;;24.05;44.21;101135.50;4967989;28;45481;-86
2022/06/03 12:21:29;;;;;;;;;10.00;10.00;;;;;24.23;43.68;101137.31;4966982;28;48113;-81
2022/06/03 12:23:56;;;;;;;;;10.67;10.00;;;;;24.38;43.24;101135.66;4966704;28;47206;-87
2022/06/03 12:26:31;;;;;;;;;10.00;10.00;;;;;24.52;43.55;101142.31;4967474;28;46170;-87
2022/06/03 12:29:22;;;;;;;;;11.00;10.67;;;;;24.70;43.35;101141.34;4964511;28;46644;-87
2022/06/03 12:31:48;;;;;;;;;10.00;10.00;;;;;24.84;42.58;101143.41;4963654;28;46117;-86
2022/06/03 12:34:23;;;;;;;;;10.00;10.00;;;;;24.96;42.70;101138.50;4967084;28;46901;-88
2022/06/03 12:37:01;;;;;;;;;14.33;11.00;;;;;25.10;42.72;101141.59;4965272;28;45832;-90
2022/06/03 12:39:52;;;;;;;;;10.00;10.00;;;;;25.19;42.48;101135.13;4966132;28;45713;-89
2022/06/03 12:42:20;;;;;;;;;11.33;10.33;;;;;25.28;41.94;101141.41;4966961;28;45690;-87
2022/06/03 12:44:48;;;;;;;;;10.33;9.33;;;;;25.37;41.54;101134.06;4982141;28;45619;-85
2022/06/03 12:47:31;;;;;;;;;13.33;12.00;;;;;25.44;41.89;101118.81;4976363;28;53222;-89
2022/06/03 12:50:24;;;;;;;;;12.00;11.00;;;;;25.50;41.56;101107.22;5016273;28;45605;-87
2022/06/03 12:52:55;;;;;;;;;12.33;11.00;;;;;25.57;41.88;101103.84;5036622;28;46682;-87
2022/06/03 12:55:27;;;;;;;;;14.67;13.33;;;;;25.64;41.54;101108.44;5037057;28;46277;-86
2022/06/03 12:57:59;;;;;;;;;10.00;10.00;;;;;25.69;41.52;101109.75;5038948;28;45672;-87
2022/06/03 13:00:30;;;;;;;;;11.00;10.00;;;;;25.74;41.54;101101.91;5029572;28;45862;-85
2022/06/03 13:02:59;;;;;;;;;9.00;9.00;;;;;25.81;41.54;101105.66;5029370;28;47126;-85
2022/06/03 13:05:42;;;;;;;;;10.00;10.00;;;;;25.88;41.43;101103.91;5023790;28;46923;-90
2022/06/03 13:08:33;;;;;;;;;11.00;10.33;;;;;25.92;41.38;101110.69;5024062;28;45569;-84
2022/06/03 13:11:30;;;;;;;;;10.33;10.33;;;;;25.97;41.38;101106.59;5028492;28;45802;-87
2022/06/03 13:13:55;;;;;;;;;11.67;11.33;;;;;26.00;40.67;101104.38;5024529;28;46251;-85
2022/06/03 13:16:38;;;;;;;;;10.33;10.33;;;;;26.03;41.22;101101.31;5023535;28;46951;-87
2022/06/03 13:19:19;;;;;;;;;11.33;8.00;;;;;26.08;40.79;101095.34;5027036;28;45922;-86
2022/06/03 13:21:56;;;;;;;;;10.00;10.00;;;;;26.12;41.04;101090.41;5026849;28;45668;-87
2022/06/03 13:24:28;;;;;;;;;9.33;9.00;;;;;26.15;40.91;101098.19;5029677;28;46595;-84
2022/06/03 13:27:26;;;;;;;;;10.00;10.00;;;;;26.18;41.19;101095.97;5026017;28;45568;-89
2022/06/03 13:29:52;;;;;;;;;12.33;11.00;;;;;26.22;41.28;101087.44;5024589;28;46558;-86
2022/06/03 13:32:39;;;;;;;;;12.33;10.33;;;;;26.25;40.65;101081.69;5026882;28;45571;-84
2022/06/03 13:35:23;;;;;;;;;9.00;9.00;;;;;26.29;41.20;101078.41;5031544;28;47444;-82
2022/06/03 13:38:25;;;;;;;;;10.00;10.00;;;;;26.31;40.73;101078.25;5027262;28;46787;-83
2022/06/03 13:44:19;;;;;;;;;9.33;9.33;;;;;26.36;40.48;101094.88;5027782;28;45514;-87
2022/06/03 13:46:49;;;;;;;;;11.33;9.33;;;;;26.37;41.01;101095.72;5022399;28;47012;-86
2022/06/03 13:49:25;;;;;;;;;9.00;9.00;;;;;26.38;40.90;101094.69;5023118;28;46163;-86
2022/06/03 13:52:01;;;;;;;;;10.33;10.33;;;;;26.40;40.77;101109.00;5026113;28;47228;-87
2022/06/03 13:54:36;;;;;;;;;10.00;10.00;;;;;26.41;40.71;101106.06;5024403;28;47362;-85
2022/06/03 13:57:27;;;;;;;;;11.67;8.67;;;;;26.42;40.90;101099.63;5032010;28;45622;-84
2022/06/03 14:00:23;;;;;;;;;10.67;10.67;;;;;26.43;41.29;101082.25;5028311;28;46768;-82
2022/06/03 14:02:51;;;;;;;;;7.00;7.00;;;;;26.44;40.56;101073.06;5024512;28;45533;-87
2022/06/03 14:05:31;;;;;;;;;9.33;9.33;;;;;26.47;40.93;101081.88;5027612;28;45635;-89
2022/06/03 14:08:25;;;;;;;;;9.00;9.00;;;;;26.46;40.86;101080.19;5022848;28;46486;-87
2022/06/03 14:11:08;;;;;;;;;10.67;10.67;;;;;26.46;40.76;101080.19;5025181;28;45582;-88
2022/06/03 14:13:37;;;;;;;;;10.67;10.67;;;;;26.47;41.08;101074.56;5022042;28;45524;-84
2022/06/03 14:16:15;;;;;;;;;11.67;9.00;;;;;26.48;40.73;101078.97;5023199;28;47119;-84
2022/06/03 14:18:54;;;;;;;;;9.67;9.67;;;;;26.51;40.77;101072.31;5026607;28;46189;-86
2022/06/03 16:48:27;;;;;;;;;15.00;13.33;;;;;21.78;51.92;101072.44;5041424;28;45415;-85
2022/06/03 16:50:52;;;;;;;;;15.50;13.75;;;;;21.97;51.75;101066.94;5032126;28;45848;-88
2022/06/03 16:53:19;;;;;;;;;14.00;14.00;;;;;22.22;51.58;101069.91;5034921;28;45626;-85
2022/06/03 16:55:51;;;;;;;;;10.67;9.33;;;;;22.50;51.39;101067.16;5034814;28;46277;-89
2022/06/03 16:58:19;;;;;;;;;14.33;11.00;;;;;22.79;50.88;101065.25;5044216;28;45411;-87
2022/06/03 17:01:00;;;;;;;;;12.33;11.67;;;;;23.09;50.15;101064.97;5047275;28;45554;-83
2022/06/03 17:03:34;;;;;;;;;12.00;11.67;;;;;23.36;49.87;101061.31;5039886;28;45581;-82
2022/06/03 17:06:04;;;;;;;;;9.67;9.67;;;;;23.63;49.21;101074.84;5045315;28;46358;-82
2022/06/03 17:09:08;;;;;;;;;9.33;9.33;;;;;23.87;49.14;101073.25;5040550;28;45748;-81
2022/06/03 17:11:38;;;;;;;;;10.67;10.67;;;;;24.12;48.70;101076.94;5040538;28;45635;-84
2022/06/03 17:14:11;;;;;;;;;13.67;12.67;;;;;24.34;47.93;101080.03;5037457;28;45544;-83
2022/06/03 17:16:45;;;;;;;;;13.33;9.33;;;;;24.52;47.67;101079.06;5016358;28;47118;-84
2022/06/03 17:19:11;;;;;;;;;10.00;10.00;;;;;24.67;47.27;101082.81;5032715;28;45495;-79
2022/06/03 17:21:49;;;;;;;;;13.00;11.00;;;;;24.82;46.96;101088.44;5033315;28;47837;-76
2022/06/03 17:24:31;;;;;;;;;10.00;8.00;;;;;24.97;46.30;101090.50;5032098;28;45629;-78
2022/06/03 17:27:02;;;;;;;;;12.00;10.00;;;;;25.15;46.21;101089.44;5033246;28;47320;-79
2022/06/03 17:30:05;;;;;;;;;12.33;12.00;;;;;25.26;45.95;101092.66;5034104;28;52475;-79
2022/06/03 17:32:37;;;;;;;;;10.00;10.00;;;;;25.39;45.83;101091.31;5034558;28;45537;-78
2022/06/03 17:35:15;;;;;;;;;9.67;9.67;;;;;25.50;45.41;101093.63;5031797;28;45511;-76
2022/06/03 17:37:57;;;;;;;;;9.67;9.67;;;;;25.60;45.18;101090.78;5034204;28;47089;-76
2022/06/03 17:40:45;;;;;;;;;12.00;11.00;;;;;25.67;45.01;101095.50;5041317;28;45460;-79
